PWSweather.com
Personal Weather Stations
Station Observations
WATERF01
WaterfordIE

WaterfordIE

Lat: 52.2412507, Lon: -7.1414691

Elevation: 65

Station Type: Davis Vantage Vue

www.waterfordweather.com

High Low Average
Temperature 71.8°F22.1°C 59.3°F15.2°C 64.2°F17.9°C
Dew Point 61.1°F16.2°C 55.1°F12.8°C 57.7°F14.3°C
Winds 9.2 mph 14.8 kmh Calm Calm 4.0 mph WSW6.4 kmh WSW
Wind Gusts 13.8 mph22.2 kmh -- 7.0 mph11.3 kmh
Humidity 87% 64% 80%
Pressure 30.33 in1027.1 mb 30.26 in1024.7 mb -
Precipitation 0.00 in0.0 mm - -
Hour Temp Dew Point Humidity Winds Wind Gusts Pressure Precip Precip Rate Daily Precip Total
12:00 AM 60.6°F15.9°C 56.0°F13.3°C 85% 8.1 mph NW13.0 kmh NW 12.7 mph20.4 kmh 30.26 in1024.7 mb - 0.00 in0.0 mm 0.00 in0.0 mm
12:10 AM 60.3°F15.7°C 55.8°F13.2°C 85% 5.8 mph NW9.3 kmh NW 8.1 mph13.0 kmh 30.26 in1024.7 mb - 0.00 in0.0 mm 0.00 in0.0 mm
12:20 AM 60.2°F15.7°C 55.7°F13.2°C 85% 8.1 mph NW13.0 kmh NW 13.8 mph22.2 kmh 30.26 in1024.7 mb - 0.00 in0.0 mm 0.00 in0.0 mm
12:30 AM 60.1°F15.6°C 55.9°F13.3°C 86% 5.8 mph NW9.3 kmh NW 9.2 mph14.8 kmh 30.26 in1024.7 mb - 0.00 in0.0 mm 0.00 in0.0 mm
12:40 AM 60.1°F15.6°C 55.9°F13.3°C 86% 6.9 mph NW11.1 kmh NW 13.8 mph22.2 kmh 30.27 in1025.1 mb - 0.00 in0.0 mm 0.00 in0.0 mm
12:50 AM 60.1°F15.6°C 55.9°F13.3°C 86% 6.9 mph NNW11.1 kmh NNW 11.5 mph18.5 kmh 30.27 in1025.1 mb - 0.00 in0.0 mm 0.00 in0.0 mm
01:00 AM 60.0°F15.6°C 55.8°F13.2°C 86% 5.8 mph NW9.3 kmh NW 8.1 mph13.0 kmh 30.27 in1025.1 mb - 0.00 in0.0 mm 0.00 in0.0 mm
01:10 AM 59.9°F15.5°C 55.7°F13.2°C 86% 8.1 mph NNW13.0 kmh NNW 11.5 mph18.5 kmh 30.26 in1024.7 mb - 0.00 in0.0 mm 0.00 in0.0 mm
01:20 AM 59.9°F15.5°C 55.7°F13.2°C 86% 5.8 mph NW9.3 kmh NW 9.2 mph14.8 kmh 30.27 in1025.1 mb - 0.00 in0.0 mm 0.00 in0.0 mm
01:30 AM 59.7°F15.4°C 55.5°F13.1°C 86% 5.8 mph NW9.3 kmh NW 8.1 mph13.0 kmh 30.27 in1025.1 mb - 0.00 in0.0 mm 0.00 in0.0 mm
01:40 AM 59.6°F15.3°C 55.4°F13.0°C 86% 6.9 mph N11.1 kmh N 8.1 mph13.0 kmh 30.27 in1025.1 mb - 0.00 in0.0 mm 0.00 in0.0 mm
01:50 AM 59.5°F15.3°C 55.3°F12.9°C 86% 4.6 mph NNW7.4 kmh NNW 6.9 mph11.1 kmh 30.27 in1025.1 mb - 0.00 in0.0 mm 0.00 in0.0 mm
02:00 AM 59.3°F15.2°C 55.1°F12.8°C 86% 5.8 mph NNW9.3 kmh NNW 11.5 mph18.5 kmh 30.27 in1025.1 mb - 0.00 in0.0 mm 0.00 in0.0 mm
02:10 AM 59.3°F15.2°C 55.1°F12.8°C 86% 6.9 mph NW11.1 kmh NW 8.1 mph13.0 kmh 30.27 in1025.1 mb - 0.00 in0.0 mm 0.00 in0.0 mm
02:20 AM 59.3°F15.2°C 55.1°F12.8°C 86% 4.6 mph NW7.4 kmh NW 8.1 mph13.0 kmh 30.27 in1025.1 mb - 0.00 in0.0 mm 0.00 in0.0 mm
02:30 AM 59.4°F15.2°C 55.2°F12.9°C 86% 3.5 mph NW5.6 kmh NW 6.9 mph11.1 kmh 30.26 in1024.7 mb - 0.00 in0.0 mm 0.00 in0.0 mm
02:40 AM 59.6°F15.3°C 55.4°F13.0°C 86% 4.6 mph NW7.4 kmh NW 8.1 mph13.0 kmh 30.26 in1024.7 mb - 0.00 in0.0 mm 0.00 in0.0 mm
02:50 AM 59.9°F15.5°C 55.7°F13.2°C 86% 5.8 mph NW9.3 kmh NW 9.2 mph14.8 kmh 30.26 in1024.7 mb - 0.00 in0.0 mm 0.00 in0.0 mm
03:00 AM 60.2°F15.7°C 55.9°F13.3°C 86% 4.6 mph NW7.4 kmh NW 11.5 mph18.5 kmh 30.27 in1025.1 mb - 0.00 in0.0 mm 0.00 in0.0 mm
03:10 AM 60.4°F15.8°C 56.2°F13.4°C 86% 6.9 mph NW11.1 kmh NW 12.7 mph20.4 kmh 30.27 in1025.1 mb - 0.00 in0.0 mm 0.00 in0.0 mm
03:20 AM 60.4°F15.8°C 56.2°F13.4°C 86% 5.8 mph NW9.3 kmh NW 9.2 mph14.8 kmh 30.27 in1025.1 mb - 0.00 in0.0 mm 0.00 in0.0 mm
03:30 AM 60.5°F15.8°C 56.3°F13.5°C 86% 5.8 mph NW9.3 kmh NW 8.1 mph13.0 kmh 30.27 in1025.1 mb - 0.00 in0.0 mm 0.00 in0.0 mm
03:40 AM 60.5°F15.8°C 56.3°F13.5°C 86% 6.9 mph NNW11.1 kmh NNW 11.5 mph18.5 kmh 30.27 in1025.1 mb - 0.00 in0.0 mm 0.00 in0.0 mm
03:50 AM 60.5°F15.8°C 56.3°F13.5°C 86% 5.8 mph NW9.3 kmh NW 11.5 mph18.5 kmh 30.27 in1025.1 mb - 0.00 in0.0 mm 0.00 in0.0 mm
04:00 AM 60.5°F15.8°C 56.3°F13.5°C 86% 4.6 mph NW7.4 kmh NW 9.2 mph14.8 kmh 30.27 in1025.1 mb - 0.00 in0.0 mm 0.00 in0.0 mm
04:10 AM 60.5°F15.8°C 56.3°F13.5°C 86% 3.5 mph NW5.6 kmh NW 8.1 mph13.0 kmh 30.27 in1025.1 mb - 0.00 in0.0 mm 0.00 in0.0 mm
04:20 AM 60.4°F15.8°C 56.2°F13.4°C 86% 3.5 mph NW5.6 kmh NW 5.8 mph9.3 kmh 30.28 in1025.4 mb - 0.00 in0.0 mm 0.00 in0.0 mm
04:30 AM 60.4°F15.8°C 56.2°F13.4°C 86% 3.5 mph NW5.6 kmh NW 8.1 mph13.0 kmh 30.28 in1025.4 mb - 0.00 in0.0 mm 0.00 in0.0 mm
04:40 AM 60.3°F15.7°C 56.1°F13.4°C 86% 4.6 mph NW7.4 kmh NW 5.8 mph9.3 kmh 30.28 in1025.4 mb - 0.00 in0.0 mm 0.00 in0.0 mm
04:50 AM 60.2°F15.7°C 56.0°F13.3°C 86% 4.6 mph NW7.4 kmh NW 6.9 mph11.1 kmh 30.28 in1025.4 mb - 0.00 in0.0 mm 0.00 in0.0 mm
05:00 AM 60.1°F15.6°C 55.9°F13.3°C 86% 4.6 mph NNW7.4 kmh NNW 8.1 mph13.0 kmh 30.28 in1025.4 mb - 0.00 in0.0 mm 0.00 in0.0 mm
05:10 AM 60.1°F15.6°C 55.9°F13.3°C 86% 4.6 mph NW7.4 kmh NW 5.8 mph9.3 kmh 30.28 in1025.4 mb - 0.00 in0.0 mm 0.00 in0.0 mm
05:20 AM 60.1°F15.6°C 55.9°F13.3°C 86% 4.6 mph NW7.4 kmh NW 6.9 mph11.1 kmh 30.28 in1025.4 mb - 0.00 in0.0 mm 0.00 in0.0 mm
05:30 AM 60.1°F15.6°C 55.9°F13.3°C 86% 4.6 mph NW7.4 kmh NW 8.1 mph13.0 kmh 30.28 in1025.4 mb - 0.00 in0.0 mm 0.00 in0.0 mm
05:40 AM 60.2°F15.7°C 56.0°F13.3°C 86% 4.6 mph NNW7.4 kmh NNW 8.1 mph13.0 kmh 30.29 in1025.7 mb - 0.00 in0.0 mm 0.00 in0.0 mm
05:50 AM 60.2°F15.7°C 56.0°F13.3°C 86% 3.5 mph NW5.6 kmh NW 5.8 mph9.3 kmh 30.29 in1025.7 mb - 0.00 in0.0 mm 0.00 in0.0 mm
06:00 AM 60.4°F15.8°C 56.2°F13.4°C 86% 3.5 mph NW5.6 kmh NW 6.9 mph11.1 kmh 30.29 in1025.7 mb - 0.00 in0.0 mm 0.00 in0.0 mm
06:10 AM 60.5°F15.8°C 56.3°F13.5°C 86% 4.6 mph NNW7.4 kmh NNW 6.9 mph11.1 kmh 30.29 in1025.7 mb - 0.00 in0.0 mm 0.00 in0.0 mm
06:20 AM 60.6°F15.9°C 56.4°F13.6°C 86% 3.5 mph NNW5.6 kmh NNW 5.8 mph9.3 kmh 30.29 in1025.7 mb - 0.00 in0.0 mm 0.00 in0.0 mm
06:30 AM 60.7°F15.9°C 56.5°F13.6°C 86% 5.8 mph NW9.3 kmh NW 6.9 mph11.1 kmh 30.30 in1026.1 mb - 0.00 in0.0 mm 0.00 in0.0 mm
06:40 AM 60.9°F16.1°C 56.6°F13.7°C 86% 1.2 mph NW1.9 kmh NW 2.3 mph3.7 kmh 30.30 in1026.1 mb - 0.00 in0.0 mm 0.00 in0.0 mm
06:50 AM 61.1°F16.2°C 56.9°F13.8°C 86% 3.5 mph NW5.6 kmh NW 8.1 mph13.0 kmh 30.30 in1026.1 mb - 0.00 in0.0 mm 0.00 in0.0 mm
07:00 AM 61.2°F16.2°C 56.7°F13.7°C 85% 3.5 mph NW5.6 kmh NW 5.8 mph9.3 kmh 30.30 in1026.1 mb - 0.00 in0.0 mm 0.00 in0.0 mm
07:10 AM 61.3°F16.3°C 56.8°F13.8°C 85% 5.8 mph NNW9.3 kmh NNW 8.1 mph13.0 kmh 30.30 in1026.1 mb - 0.00 in0.0 mm 0.00 in0.0 mm
07:20 AM 61.6°F16.4°C 56.7°F13.7°C 84% 3.5 mph NW5.6 kmh NW 6.9 mph11.1 kmh 30.30 in1026.1 mb - 0.00 in0.0 mm 0.00 in0.0 mm
07:30 AM 62.1°F16.7°C 56.9°F13.8°C 83% Calm Calm 5.8 mph9.3 kmh 30.30 in1026.1 mb - 0.00 in0.0 mm 0.00 in0.0 mm
07:40 AM 62.7°F17.1°C 57.2°F14.0°C 82% 2.3 mph NNW3.7 kmh NNW 6.9 mph11.1 kmh 30.30 in1026.1 mb - 0.00 in0.0 mm 0.00 in0.0 mm
07:50 AM 62.9°F17.2°C 57.0°F13.9°C 81% 4.6 mph NNW7.4 kmh NNW 8.1 mph13.0 kmh 30.31 in1026.4 mb - 0.00 in0.0 mm 0.00 in0.0 mm
08:00 AM 63.4°F17.4°C 57.1°F13.9°C 80% 3.5 mph NNW5.6 kmh NNW 8.1 mph13.0 kmh 30.31 in1026.4 mb - 0.00 in0.0 mm 0.00 in0.0 mm
08:10 AM 63.6°F17.6°C 57.3°F14.1°C 80% 5.8 mph NNW9.3 kmh NNW 11.5 mph18.5 kmh 30.31 in1026.4 mb - 0.00 in0.0 mm 0.00 in0.0 mm
08:20 AM 64.1°F17.8°C 57.1°F13.9°C 78% 5.8 mph NW9.3 kmh NW 8.1 mph13.0 kmh 30.31 in1026.4 mb - 0.00 in0.0 mm 0.00 in0.0 mm
08:30 AM 64.1°F17.8°C 57.5°F14.2°C 79% 2.3 mph NW3.7 kmh NW 5.8 mph9.3 kmh 30.31 in1026.4 mb - 0.00 in0.0 mm 0.00 in0.0 mm
08:40 AM 64.6°F18.1°C 57.6°F14.2°C 78% 4.6 mph NNW7.4 kmh NNW 8.1 mph13.0 kmh 30.31 in1026.4 mb - 0.00 in0.0 mm 0.00 in0.0 mm
08:50 AM 65.3°F18.5°C 57.5°F14.2°C 76% 4.6 mph NW7.4 kmh NW 6.9 mph11.1 kmh 30.31 in1026.4 mb - 0.00 in0.0 mm 0.00 in0.0 mm
09:00 AM 65.2°F18.4°C 57.4°F14.1°C 76% 4.6 mph NNW7.4 kmh NNW 9.2 mph14.8 kmh 30.31 in1026.4 mb - 0.00 in0.0 mm 0.00 in0.0 mm
09:10 AM 64.9°F18.3°C 57.5°F14.2°C 77% 1.2 mph NE1.9 kmh NE 5.8 mph9.3 kmh 30.32 in1026.8 mb - 0.00 in0.0 mm 0.00 in0.0 mm
09:20 AM 65.0°F18.3°C 57.7°F14.3°C 77% 3.5 mph NNW5.6 kmh NNW 5.8 mph9.3 kmh 30.32 in1026.8 mb - 0.00 in0.0 mm 0.00 in0.0 mm
09:30 AM 64.7°F18.2°C 57.3°F14.1°C 77% 4.6 mph NW7.4 kmh NW 5.8 mph9.3 kmh 30.31 in1026.4 mb - 0.00 in0.0 mm 0.00 in0.0 mm
09:40 AM 65.3°F18.5°C 57.9°F14.4°C 77% 3.5 mph NW5.6 kmh NW 5.8 mph9.3 kmh 30.31 in1026.4 mb - 0.00 in0.0 mm 0.00 in0.0 mm
09:50 AM 65.1°F18.4°C 57.7°F14.3°C 77% 4.6 mph NNW7.4 kmh NNW 8.1 mph13.0 kmh 30.32 in1026.8 mb - 0.00 in0.0 mm 0.00 in0.0 mm
10:00 AM 65.2°F18.4°C 57.8°F14.3°C 77% 1.2 mph N1.9 kmh N 4.6 mph7.4 kmh 30.32 in1026.8 mb - 0.00 in0.0 mm 0.00 in0.0 mm
10:10 AM 65.4°F18.6°C 57.6°F14.2°C 76% 4.6 mph N7.4 kmh N 6.9 mph11.1 kmh 30.32 in1026.8 mb - 0.00 in0.0 mm 0.00 in0.0 mm
10:20 AM 65.8°F18.8°C 58.0°F14.4°C 76% 2.3 mph NNW3.7 kmh NNW 5.8 mph9.3 kmh 30.32 in1026.8 mb - 0.00 in0.0 mm 0.00 in0.0 mm
10:30 AM 65.7°F18.7°C 57.9°F14.4°C 76% 4.6 mph NNW7.4 kmh NNW 5.8 mph9.3 kmh 30.33 in1027.1 mb - 0.00 in0.0 mm 0.00 in0.0 mm
10:40 AM 65.9°F18.8°C 57.7°F14.3°C 75% 5.8 mph NNW9.3 kmh NNW 9.2 mph14.8 kmh 30.33 in1027.1 mb - 0.00 in0.0 mm 0.00 in0.0 mm
10:50 AM 66.4°F19.1°C 58.6°F14.8°C 76% 3.5 mph N5.6 kmh N 6.9 mph11.1 kmh 30.33 in1027.1 mb - 0.00 in0.0 mm 0.00 in0.0 mm
11:00 AM 67.3°F19.6°C 58.3°F14.6°C 73% 1.2 mph E1.9 kmh E 5.8 mph9.3 kmh 30.33 in1027.1 mb - 0.00 in0.0 mm 0.00 in0.0 mm
11:10 AM 66.8°F19.3°C 57.9°F14.4°C 73% Calm Calm -- 30.32 in1026.8 mb - 0.00 in0.0 mm 0.00 in0.0 mm
11:20 AM 67.3°F19.6°C 58.7°F14.8°C 74% 1.2 mph E1.9 kmh E 4.6 mph7.4 kmh 30.32 in1026.8 mb - 0.00 in0.0 mm 0.00 in0.0 mm
11:30 AM 67.2°F19.6°C 58.3°F14.6°C 73% 2.3 mph NNW3.7 kmh NNW 5.8 mph9.3 kmh 30.32 in1026.8 mb - 0.00 in0.0 mm 0.00 in0.0 mm
11:40 AM 68.3°F20.2°C 59.0°F15.0°C 72% 2.3 mph NNW3.7 kmh NNW 5.8 mph9.3 kmh 30.32 in1026.8 mb - 0.00 in0.0 mm 0.00 in0.0 mm
11:50 AM 69.8°F21.0°C 59.2°F15.1°C 69% 2.3 mph NNW3.7 kmh NNW 5.8 mph9.3 kmh 30.32 in1026.8 mb - 0.00 in0.0 mm 0.00 in0.0 mm
12:00 PM 69.5°F20.8°C 58.9°F14.9°C 69% 1.2 mph NE1.9 kmh NE 4.6 mph7.4 kmh 30.32 in1026.8 mb - 0.00 in0.0 mm 0.00 in0.0 mm
12:10 PM 69.9°F21.1°C 59.3°F15.2°C 69% 3.5 mph N5.6 kmh N 5.8 mph9.3 kmh 30.32 in1026.8 mb - 0.00 in0.0 mm 0.00 in0.0 mm
12:20 PM 69.0°F20.6°C 58.8°F14.9°C 70% 3.5 mph N5.6 kmh N 6.9 mph11.1 kmh 30.32 in1026.8 mb - 0.00 in0.0 mm 0.00 in0.0 mm
12:30 PM 69.1°F20.6°C 58.9°F14.9°C 70% 2.3 mph WNW3.7 kmh WNW 8.1 mph13.0 kmh 30.32 in1026.8 mb - 0.00 in0.0 mm 0.00 in0.0 mm
12:40 PM 69.0°F20.6°C 58.8°F14.9°C 70% Calm Calm -- 30.32 in1026.8 mb - 0.00 in0.0 mm 0.00 in0.0 mm
12:50 PM 69.6°F20.9°C 59.0°F15.0°C 69% 3.5 mph WNW5.6 kmh WNW 5.8 mph9.3 kmh 30.31 in1026.4 mb - 0.00 in0.0 mm 0.00 in0.0 mm
01:00 PM 70.6°F21.4°C 59.6°F15.3°C 68% 3.5 mph NW5.6 kmh NW 6.9 mph11.1 kmh 30.31 in1026.4 mb - 0.00 in0.0 mm 0.00 in0.0 mm
01:10 PM 70.3°F21.3°C 58.8°F14.9°C 67% 2.3 mph NW3.7 kmh NW 5.8 mph9.3 kmh 30.31 in1026.4 mb - 0.00 in0.0 mm 0.00 in0.0 mm
01:20 PM 69.7°F20.9°C 58.6°F14.8°C 68% 3.5 mph NW5.6 kmh NW 5.8 mph9.3 kmh 30.30 in1026.1 mb - 0.00 in0.0 mm 0.00 in0.0 mm
01:30 PM 69.8°F21.0°C 58.4°F14.7°C 67% Calm Calm -- 30.30 in1026.1 mb - 0.00 in0.0 mm 0.00 in0.0 mm
01:40 PM 70.6°F21.4°C 58.7°F14.8°C 66% 1.2 mph NW1.9 kmh NW 5.8 mph9.3 kmh 30.30 in1026.1 mb - 0.00 in0.0 mm 0.00 in0.0 mm
01:50 PM 70.5°F21.4°C 59.0°F15.0°C 67% Calm Calm -- 30.30 in1026.1 mb - 0.00 in0.0 mm 0.00 in0.0 mm
02:00 PM 71.1°F21.7°C 58.7°F14.8°C 65% 2.3 mph WSW3.7 kmh WSW 6.9 mph11.1 kmh 30.30 in1026.1 mb - 0.00 in0.0 mm 0.00 in0.0 mm
02:10 PM 71.4°F21.9°C 58.6°F14.8°C 64% 1.2 mph W1.9 kmh W 5.8 mph9.3 kmh 30.30 in1026.1 mb - 0.00 in0.0 mm 0.00 in0.0 mm
02:20 PM 71.8°F22.1°C 60.7°F15.9°C 68% 3.5 mph SW5.6 kmh SW 9.2 mph14.8 kmh 30.30 in1026.1 mb - 0.00 in0.0 mm 0.00 in0.0 mm
02:30 PM 70.7°F21.5°C 60.1°F15.6°C 69% 6.9 mph S11.1 kmh S 8.1 mph13.0 kmh 30.29 in1025.7 mb - 0.00 in0.0 mm 0.00 in0.0 mm
02:40 PM 71.4°F21.9°C 61.1°F16.2°C 70% 8.1 mph SSW13.0 kmh SSW 11.5 mph18.5 kmh 30.30 in1026.1 mb - 0.00 in0.0 mm 0.00 in0.0 mm
02:50 PM 70.8°F21.6°C 60.1°F15.6°C 69% 6.9 mph SSW11.1 kmh SSW 8.1 mph13.0 kmh 30.29 in1025.7 mb - 0.00 in0.0 mm 0.00 in0.0 mm
03:00 PM 70.2°F21.2°C 60.4°F15.8°C 71% 8.1 mph SSW13.0 kmh SSW 11.5 mph18.5 kmh 30.29 in1025.7 mb - 0.00 in0.0 mm 0.00 in0.0 mm
03:10 PM 70.3°F21.3°C 60.1°F15.6°C 70% 5.8 mph SSW9.3 kmh SSW 8.1 mph13.0 kmh 30.29 in1025.7 mb - 0.00 in0.0 mm 0.00 in0.0 mm
03:20 PM 69.9°F21.1°C 60.4°F15.8°C 72% 8.1 mph S13.0 kmh S 11.5 mph18.5 kmh 30.29 in1025.7 mb - 0.00 in0.0 mm 0.00 in0.0 mm
03:30 PM 68.9°F20.5°C 60.7°F15.9°C 75% 9.2 mph S14.8 kmh S 13.8 mph22.2 kmh 30.29 in1025.7 mb - 0.00 in0.0 mm 0.00 in0.0 mm
03:40 PM 68.4°F20.2°C 60.5°F15.8°C 76% 9.2 mph S14.8 kmh S 13.8 mph22.2 kmh 30.29 in1025.7 mb - 0.00 in0.0 mm 0.00 in0.0 mm
03:50 PM 68.4°F20.2°C 60.5°F15.8°C 76% 9.2 mph SSW14.8 kmh SSW 12.7 mph20.4 kmh 30.29 in1025.7 mb - 0.00 in0.0 mm 0.00 in0.0 mm
04:00 PM 68.2°F20.1°C 60.3°F15.7°C 76% 6.9 mph SW11.1 kmh SW 11.5 mph18.5 kmh 30.29 in1025.7 mb - 0.00 in0.0 mm 0.00 in0.0 mm
04:10 PM 67.1°F19.5°C 59.6°F15.3°C 77% 9.2 mph SSW14.8 kmh SSW 13.8 mph22.2 kmh 30.30 in1026.1 mb - 0.00 in0.0 mm 0.00 in0.0 mm
04:20 PM 66.5°F19.2°C 59.5°F15.3°C 78% 6.9 mph SSW11.1 kmh SSW 9.2 mph14.8 kmh 30.30 in1026.1 mb - 0.00 in0.0 mm 0.00 in0.0 mm
04:30 PM 67.7°F19.8°C 60.6°F15.9°C 78% 8.1 mph SSW13.0 kmh SSW 11.5 mph18.5 kmh 30.30 in1026.1 mb - 0.00 in0.0 mm 0.00 in0.0 mm
04:40 PM 67.7°F19.8°C 60.2°F15.7°C 77% 9.2 mph SSW14.8 kmh SSW 12.7 mph20.4 kmh 30.29 in1025.7 mb - 0.00 in0.0 mm 0.00 in0.0 mm
04:50 PM 68.1°F20.1°C 60.2°F15.7°C 76% 6.9 mph SSW11.1 kmh SSW 11.5 mph18.5 kmh 30.29 in1025.7 mb - 0.00 in0.0 mm 0.00 in0.0 mm
05:00 PM 68.2°F20.1°C 60.4°F15.8°C 76% 6.9 mph S11.1 kmh S 8.1 mph13.0 kmh 30.29 in1025.7 mb - 0.00 in0.0 mm 0.00 in0.0 mm
05:10 PM 68.8°F20.4°C 60.9°F16.1°C 76% 5.8 mph SW9.3 kmh SW 6.9 mph11.1 kmh 30.29 in1025.7 mb - 0.00 in0.0 mm 0.00 in0.0 mm
05:20 PM 68.4°F20.2°C 60.5°F15.8°C 76% 5.8 mph SSW9.3 kmh SSW 5.8 mph9.3 kmh 30.29 in1025.7 mb - 0.00 in0.0 mm 0.00 in0.0 mm
05:30 PM 68.6°F20.3°C 60.7°F15.9°C 76% 6.9 mph S11.1 kmh S 9.2 mph14.8 kmh 30.29 in1025.7 mb - 0.00 in0.0 mm 0.00 in0.0 mm
05:40 PM 68.4°F20.2°C 60.9°F16.1°C 77% 5.8 mph SSW9.3 kmh SSW 11.5 mph18.5 kmh 30.29 in1025.7 mb - 0.00 in0.0 mm 0.00 in0.0 mm
05:50 PM 68.4°F20.2°C 60.9°F16.1°C 77% 5.8 mph SSW9.3 kmh SSW 8.1 mph13.0 kmh 30.28 in1025.4 mb - 0.00 in0.0 mm 0.00 in0.0 mm
06:00 PM 68.9°F20.5°C 60.6°F15.9°C 75% 6.9 mph S11.1 kmh S 9.2 mph14.8 kmh 30.28 in1025.4 mb - 0.00 in0.0 mm 0.00 in0.0 mm
06:10 PM 68.7°F20.4°C 60.4°F15.8°C 75% 4.6 mph SSW7.4 kmh SSW 6.9 mph11.1 kmh 30.28 in1025.4 mb - 0.00 in0.0 mm 0.00 in0.0 mm
06:20 PM 68.0°F20.0°C 60.2°F15.7°C 76% 5.8 mph S9.3 kmh S 9.2 mph14.8 kmh 30.28 in1025.4 mb - 0.00 in0.0 mm 0.00 in0.0 mm
06:30 PM 67.2°F19.6°C 58.7°F14.8°C 74% 6.9 mph SSW11.1 kmh SSW 8.1 mph13.0 kmh 30.28 in1025.4 mb - 0.00 in0.0 mm 0.00 in0.0 mm
06:40 PM 67.1°F19.5°C 58.9°F14.9°C 75% 5.8 mph S9.3 kmh S 8.1 mph13.0 kmh 30.29 in1025.7 mb - 0.00 in0.0 mm 0.00 in0.0 mm
06:50 PM 66.2°F19.0°C 58.0°F14.4°C 75% 5.8 mph SSW9.3 kmh SSW 8.1 mph13.0 kmh 30.29 in1025.7 mb - 0.00 in0.0 mm 0.00 in0.0 mm
07:00 PM 66.1°F18.9°C 58.3°F14.6°C 76% 5.8 mph SSW9.3 kmh SSW 8.1 mph13.0 kmh 30.29 in1025.7 mb - 0.00 in0.0 mm 0.00 in0.0 mm
07:10 PM 66.3°F19.1°C 58.9°F14.9°C 77% 4.6 mph S7.4 kmh S 6.9 mph11.1 kmh 30.29 in1025.7 mb - 0.00 in0.0 mm 0.00 in0.0 mm
07:20 PM 66.3°F19.1°C 58.5°F14.7°C 76% 3.5 mph SSW5.6 kmh SSW 5.8 mph9.3 kmh 30.29 in1025.7 mb - 0.00 in0.0 mm 0.00 in0.0 mm
07:30 PM 65.9°F18.8°C 58.5°F14.7°C 77% 4.6 mph SSW7.4 kmh SSW 6.9 mph11.1 kmh 30.29 in1025.7 mb - 0.00 in0.0 mm 0.00 in0.0 mm
07:40 PM 65.2°F18.4°C 58.5°F14.7°C 79% 4.6 mph SSW7.4 kmh SSW 6.9 mph11.1 kmh 30.29 in1025.7 mb - 0.00 in0.0 mm 0.00 in0.0 mm
07:50 PM 64.6°F18.1°C 58.3°F14.6°C 80% 2.3 mph S3.7 kmh S 4.6 mph7.4 kmh 30.29 in1025.7 mb - 0.00 in0.0 mm 0.00 in0.0 mm
08:00 PM 63.8°F17.7°C 57.9°F14.4°C 81% 1.2 mph SSW1.9 kmh SSW 2.3 mph3.7 kmh 30.29 in1025.7 mb - 0.00 in0.0 mm 0.00 in0.0 mm
08:10 PM 63.2°F17.3°C 57.6°F14.2°C 82% Calm Calm -- 30.29 in1025.7 mb - 0.00 in0.0 mm 0.00 in0.0 mm
08:20 PM 62.7°F17.1°C 57.5°F14.2°C 83% Calm Calm -- 30.29 in1025.7 mb - 0.00 in0.0 mm 0.00 in0.0 mm
08:30 PM 62.3°F16.8°C 57.4°F14.1°C 84% Calm Calm -- 30.30 in1026.1 mb - 0.00 in0.0 mm 0.00 in0.0 mm
08:40 PM 62.0°F16.7°C 57.1°F13.9°C 84% Calm Calm -- 30.30 in1026.1 mb - 0.00 in0.0 mm 0.00 in0.0 mm
08:50 PM 61.6°F16.4°C 57.0°F13.9°C 85% Calm Calm -- 30.30 in1026.1 mb - 0.00 in0.0 mm 0.00 in0.0 mm
09:00 PM 61.4°F16.3°C 56.8°F13.8°C 85% Calm Calm -- 30.30 in1026.1 mb - 0.00 in0.0 mm 0.00 in0.0 mm
09:10 PM 61.3°F16.3°C 57.1°F13.9°C 86% Calm Calm -- 30.30 in1026.1 mb - 0.00 in0.0 mm 0.00 in0.0 mm
09:20 PM 61.3°F16.3°C 57.1°F13.9°C 86% Calm Calm -- 30.30 in1026.1 mb - 0.00 in0.0 mm 0.00 in0.0 mm
09:30 PM 60.9°F16.1°C 56.7°F13.7°C 86% Calm Calm -- 30.29 in1025.7 mb - 0.00 in0.0 mm 0.00 in0.0 mm
09:40 PM 60.7°F15.9°C 56.8°F13.8°C 87% Calm Calm -- 30.29 in1025.7 mb - 0.00 in0.0 mm 0.00 in0.0 mm
09:50 PM 60.7°F15.9°C 56.8°F13.8°C 87% Calm Calm -- 30.29 in1025.7 mb - 0.00 in0.0 mm 0.00 in0.0 mm
10:00 PM 60.7°F15.9°C 56.8°F13.8°C 87% Calm Calm -- 30.29 in1025.7 mb - 0.00 in0.0 mm 0.00 in0.0 mm
10:10 PM 60.7°F15.9°C 56.5°F13.6°C 86% Calm Calm -- 30.29 in1025.7 mb - 0.00 in0.0 mm 0.00 in0.0 mm
10:20 PM 60.5°F15.8°C 56.6°F13.7°C 87% Calm Calm -- 30.29 in1025.7 mb - 0.00 in0.0 mm 0.00 in0.0 mm
10:30 PM 60.7°F15.9°C 56.8°F13.8°C 87% Calm Calm -- 30.29 in1025.7 mb - 0.00 in0.0 mm 0.00 in0.0 mm
10:40 PM 60.6°F15.9°C 56.7°F13.7°C 87% Calm Calm -- 30.29 in1025.7 mb - 0.00 in0.0 mm 0.00 in0.0 mm
10:50 PM 60.6°F15.9°C 56.7°F13.7°C 87% Calm Calm -- 30.29 in1025.7 mb - 0.00 in0.0 mm 0.00 in0.0 mm
11:00 PM 60.5°F15.8°C 56.6°F13.7°C 87% Calm Calm -- 30.29 in1025.7 mb - 0.00 in0.0 mm 0.00 in0.0 mm
11:10 PM 60.3°F15.7°C 56.4°F13.6°C 87% Calm Calm -- 30.28 in1025.4 mb - 0.00 in0.0 mm 0.00 in0.0 mm
11:20 PM 60.2°F15.7°C 56.3°F13.5°C 87% Calm Calm -- 30.28 in1025.4 mb - 0.00 in0.0 mm 0.00 in0.0 mm
11:30 PM 60.0°F15.6°C 56.1°F13.4°C 87% Calm Calm -- 30.28 in1025.4 mb - 0.00 in0.0 mm 0.00 in0.0 mm
11:40 PM 60.0°F15.6°C 56.1°F13.4°C 87% Calm Calm -- 30.28 in1025.4 mb - 0.00 in0.0 mm 0.00 in0.0 mm
11:50 PM 59.7°F15.4°C 55.8°F13.2°C 87% Calm Calm -- 30.28 in1025.4 mb - 0.00 in0.0 mm 0.00 in0.0 mm